sensor_id;sensor_type;location;lat;lon;timestamp;temperature;humidity
42683;DHT22;28293;50.930;3.464;2022-12-18T00:00:54;-3272.00;90.80
42683;DHT22;28293;50.930;3.464;2022-12-18T00:03:19;-3271.90;90.80
42683;DHT22;28293;50.930;3.464;2022-12-18T00:05:49;-3271.90;90.80
42683;DHT22;28293;50.930;3.464;2022-12-18T00:08:15;-3271.90;90.80
42683;DHT22;28293;50.930;3.464;2022-12-18T00:10:41;-3271.80;90.80
42683;DHT22;28293;50.930;3.464;2022-12-18T00:13:07;-3271.70;90.70
42683;DHT22;28293;50.930;3.464;2022-12-18T00:15:35;-3271.80;90.80
42683;DHT22;28293;50.930;3.464;2022-12-18T00:18:01;-3271.70;90.70
42683;DHT22;28293;50.930;3.464;2022-12-18T00:20:26;-3271.60;90.70
42683;DHT22;28293;50.930;3.464;2022-12-18T00:22:53;-3271.70;90.80
42683;DHT22;28293;50.930;3.464;2022-12-18T00:25:19;-3271.70;90.80
42683;DHT22;28293;50.930;3.464;2022-12-18T00:27:45;-3271.70;90.90
42683;DHT22;28293;50.930;3.464;2022-12-18T00:30:11;-3271.70;91.00
42683;DHT22;28293;50.930;3.464;2022-12-18T00:32:37;-3271.70;91.00
42683;DHT22;28293;50.930;3.464;2022-12-18T00:35:03;-3271.70;91.00
42683;DHT22;28293;50.930;3.464;2022-12-18T00:37:29;-3271.70;91.10
42683;DHT22;28293;50.930;3.464;2022-12-18T00:39:55;-3271.70;91.10
42683;DHT22;28293;50.930;3.464;2022-12-18T00:42:20;-3271.70;91.10
42683;DHT22;28293;50.930;3.464;2022-12-18T00:45:05;-3271.60;91.10
42683;DHT22;28293;50.930;3.464;2022-12-18T00:47:31;-3271.60;91.00
42683;DHT22;28293;50.930;3.464;2022-12-18T00:49:56;-3271.60;91.10
42683;DHT22;28293;50.930;3.464;2022-12-18T00:52:22;-3271.50;91.00
42683;DHT22;28293;50.930;3.464;2022-12-18T00:54:48;-3271.50;91.00
42683;DHT22;28293;50.930;3.464;2022-12-18T00:57:13;-3271.50;91.00
42683;DHT22;28293;50.930;3.464;2022-12-18T00:59:39;-3271.50;91.00
42683;DHT22;28293;50.930;3.464;2022-12-18T01:02:04;-3271.50;91.00
42683;DHT22;28293;50.930;3.464;2022-12-18T01:04:33;-3271.50;91.00
42683;DHT22;28293;50.930;3.464;2022-12-18T01:06:59;-3271.50;91.00
42683;DHT22;28293;50.930;3.464;2022-12-18T01:09:24;-3271.50;91.10
42683;DHT22;28293;50.930;3.464;2022-12-18T01:11:50;-3271.50;91.00
42683;DHT22;28293;50.930;3.464;2022-12-18T01:14:16;-3271.50;91.00
42683;DHT22;28293;50.930;3.464;2022-12-18T01:16:41;-3271.50;90.90
42683;DHT22;28293;50.930;3.464;2022-12-18T01:19:07;-3271.50;90.80
42683;DHT22;28293;50.930;3.464;2022-12-18T01:21:33;-3271.40;90.70
42683;DHT22;28293;50.930;3.464;2022-12-18T01:23:58;-3271.50;90.60
42683;DHT22;28293;50.930;3.464;2022-12-18T01:26:25;-3271.40;90.60
42683;DHT22;28293;50.930;3.464;2022-12-18T01:28:50;-3271.40;90.50
42683;DHT22;28293;50.930;3.464;2022-12-18T01:31:22;-3271.50;90.40
42683;DHT22;28293;50.930;3.464;2022-12-18T01:33:49;-3271.40;90.30
42683;DHT22;28293;50.930;3.464;2022-12-18T01:36:17;-3271.50;90.20
42683;DHT22;28293;50.930;3.464;2022-12-18T01:38:43;-3271.40;90.00
42683;DHT22;28293;50.930;3.464;2022-12-18T01:41:09;-3271.40;89.90
42683;DHT22;28293;50.930;3.464;2022-12-18T01:43:51;-3271.30;89.90
42683;DHT22;28293;50.930;3.464;2022-12-18T01:46:19;-3271.30;89.90
42683;DHT22;28293;50.930;3.464;2022-12-18T01:48:48;-3271.30;89.90
42683;DHT22;28293;50.930;3.464;2022-12-18T01:51:15;-3271.20;90.00
42683;DHT22;28293;50.930;3.464;2022-12-18T01:53:42;-3271.20;90.00
42683;DHT22;28293;50.930;3.464;2022-12-18T01:56:12;-3271.20;90.00
42683;DHT22;28293;50.930;3.464;2022-12-18T01:58:55;-3271.20;90.00
42683;DHT22;28293;50.930;3.464;2022-12-18T02:01:24;-3271.30;90.10
42683;DHT22;28293;50.930;3.464;2022-12-18T02:03:49;-3271.30;90.10
42683;DHT22;28293;50.930;3.464;2022-12-18T02:06:34;-3271.10;89.80
42683;DHT22;28293;50.930;3.464;2022-12-18T02:09:17;-3271.00;89.70
42683;DHT22;28293;50.930;3.464;2022-12-18T02:17:21;-3271.00;89.60
42683;DHT22;28293;50.930;3.464;2022-12-18T02:20:16;-3271.00;89.50
42683;DHT22;28293;50.930;3.464;2022-12-18T02:28:34;-3271.00;89.40
42683;DHT22;28293;50.930;3.464;2022-12-18T02:31:03;-3271.00;89.40
42683;DHT22;28293;50.930;3.464;2022-12-18T02:33:30;-3271.00;89.40
42683;DHT22;28293;50.930;3.464;2022-12-18T02:35:58;-3271.00;89.40
42683;DHT22;28293;50.930;3.464;2022-12-18T02:38:25;-3271.00;89.40
42683;DHT22;28293;50.930;3.464;2022-12-18T02:40:53;-3271.00;89.50
42683;DHT22;28293;50.930;3.464;2022-12-18T02:43:19;-3271.00;89.40
42683;DHT22;28293;50.930;3.464;2022-12-18T02:48:55;-3271.00;89.50
42683;DHT22;28293;50.930;3.464;2022-12-18T02:51:37;-3270.90;89.30
42683;DHT22;28293;50.930;3.464;2022-12-18T02:54:10;-3270.90;89.30
42683;DHT22;28293;50.930;3.464;2022-12-18T02:56:48;-3270.90;89.40
42683;DHT22;28293;50.930;3.464;2022-12-18T02:59:24;-3270.80;89.30
42683;DHT22;28293;50.930;3.464;2022-12-18T03:01:57;-3270.80;89.30
42683;DHT22;28293;50.930;3.464;2022-12-18T03:04:59;-3270.70;89.20
42683;DHT22;28293;50.930;3.464;2022-12-18T03:10:27;-3270.70;89.20
42683;DHT22;28293;50.930;3.464;2022-12-18T03:13:05;-3270.60;89.20
42683;DHT22;28293;50.930;3.464;2022-12-18T03:15:42;-3270.70;89.20
42683;DHT22;28293;50.930;3.464;2022-12-18T03:18:20;-3270.80;89.30
42683;DHT22;28293;50.930;3.464;2022-12-18T03:20:49;-3270.80;89.30
42683;DHT22;28293;50.930;3.464;2022-12-18T03:23:20;-3270.90;89.30
42683;DHT22;28293;50.930;3.464;2022-12-18T03:25:47;-3270.90;89.20
42683;DHT22;28293;50.930;3.464;2022-12-18T03:28:16;-3271.00;89.20
42683;DHT22;28293;50.930;3.464;2022-12-18T03:30:44;-3270.90;89.10
42683;DHT22;28293;50.930;3.464;2022-12-18T03:33:18;-3270.90;89.20
42683;DHT22;28293;50.930;3.464;2022-12-18T03:35:45;-3270.80;89.20
42683;DHT22;28293;50.930;3.464;2022-12-18T03:38:12;-3270.80;89.30
42683;DHT22;28293;50.930;3.464;2022-12-18T03:40:50;-3270.80;89.40
42683;DHT22;28293;50.930;3.464;2022-12-18T03:43:54;-3270.80;89.40
42683;DHT22;28293;50.930;3.464;2022-12-18T03:46:48;-3270.90;89.50
42683;DHT22;28293;50.930;3.464;2022-12-18T03:49:33;-3270.80;89.40
42683;DHT22;28293;50.930;3.464;2022-12-18T03:52:17;-3270.80;89.40
42683;DHT22;28293;50.930;3.464;2022-12-18T03:54:45;-3270.80;89.30
42683;DHT22;28293;50.930;3.464;2022-12-18T03:57:18;-3270.80;89.30
42683;DHT22;28293;50.930;3.464;2022-12-18T03:59:45;-3270.70;89.20
42683;DHT22;28293;50.930;3.464;2022-12-18T04:02:14;-3270.70;89.30
42683;DHT22;28293;50.930;3.464;2022-12-18T04:04:42;-3270.70;89.30
42683;DHT22;28293;50.930;3.464;2022-12-18T04:07:09;-3270.80;89.40
42683;DHT22;28293;50.930;3.464;2022-12-18T04:09:35;-3270.80;89.30
42683;DHT22;28293;50.930;3.464;2022-12-18T04:12:02;-3270.80;89.30
42683;DHT22;28293;50.930;3.464;2022-12-18T04:14:28;-3270.70;89.30
42683;DHT22;28293;50.930;3.464;2022-12-18T04:16:53;-3270.70;89.20
42683;DHT22;28293;50.930;3.464;2022-12-18T04:19:19;-3270.70;89.20
42683;DHT22;28293;50.930;3.464;2022-12-18T04:21:44;-3270.60;89.30
42683;DHT22;28293;50.930;3.464;2022-12-18T04:24:10;-3270.60;89.40
42683;DHT22;28293;50.930;3.464;2022-12-18T04:26:36;-3270.70;89.50
42683;DHT22;28293;50.930;3.464;2022-12-18T04:29:02;-3270.60;89.50
42683;DHT22;28293;50.930;3.464;2022-12-18T04:31:27;-3270.70;89.70
42683;DHT22;28293;50.930;3.464;2022-12-18T04:33:53;-3270.70;89.80
42683;DHT22;28293;50.930;3.464;2022-12-18T04:36:19;-3270.80;89.80
42683;DHT22;28293;50.930;3.464;2022-12-18T04:38:44;-3270.80;89.70
42683;DHT22;28293;50.930;3.464;2022-12-18T04:41:10;-3270.80;89.70
42683;DHT22;28293;50.930;3.464;2022-12-18T04:43:35;-3270.80;89.80
42683;DHT22;28293;50.930;3.464;2022-12-18T04:46:06;-3270.80;89.80
42683;DHT22;28293;50.930;3.464;2022-12-18T04:48:32;-3270.80;89.90
42683;DHT22;28293;50.930;3.464;2022-12-18T04:50:58;-3270.80;90.00
42683;DHT22;28293;50.930;3.464;2022-12-18T04:53:24;-3270.80;90.00
42683;DHT22;28293;50.930;3.464;2022-12-18T04:55:50;-3270.80;90.00
42683;DHT22;28293;50.930;3.464;2022-12-18T04:58:15;-3270.80;89.90
42683;DHT22;28293;50.930;3.464;2022-12-18T05:00:41;-3270.80;90.00
42683;DHT22;28293;50.930;3.464;2022-12-18T05:03:07;-3270.70;89.90
42683;DHT22;28293;50.930;3.464;2022-12-18T05:05:34;-3270.80;90.00
42683;DHT22;28293;50.930;3.464;2022-12-18T05:08:00;-3270.80;90.10
42683;DHT22;28293;50.930;3.464;2022-12-18T05:10:26;-3270.80;90.10
42683;DHT22;28293;50.930;3.464;2022-12-18T05:12:51;-3270.70;90.10
42683;DHT22;28293;50.930;3.464;2022-12-18T05:15:24;-3270.70;90.10
42683;DHT22;28293;50.930;3.464;2022-12-18T05:17:51;-3270.70;90.10
42683;DHT22;28293;50.930;3.464;2022-12-18T05:20:17;-3270.70;90.00
42683;DHT22;28293;50.930;3.464;2022-12-18T05:22:43;-3270.70;90.00
42683;DHT22;28293;50.930;3.464;2022-12-18T05:25:09;-3270.70;89.90
42683;DHT22;28293;50.930;3.464;2022-12-18T05:27:35;-3270.60;89.90
42683;DHT22;28293;50.930;3.464;2022-12-18T05:30:00;-3270.70;89.90
42683;DHT22;28293;50.930;3.464;2022-12-18T05:32:26;-3270.70;89.80
42683;DHT22;28293;50.930;3.464;2022-12-18T05:34:51;-3270.60;89.80
42683;DHT22;28293;50.930;3.464;2022-12-18T05:37:17;-3270.70;89.80
42683;DHT22;28293;50.930;3.464;2022-12-18T05:39:43;-3270.60;89.70
42683;DHT22;28293;50.930;3.464;2022-12-18T05:42:09;-3270.60;89.70
42683;DHT22;28293;50.930;3.464;2022-12-18T05:44:35;-3270.60;89.60
42683;DHT22;28293;50.930;3.464;2022-12-18T05:47:00;-3270.60;89.60
42683;DHT22;28293;50.930;3.464;2022-12-18T05:49:26;-3270.60;89.70
42683;DHT22;28293;50.930;3.464;2022-12-18T05:51:52;-3270.60;89.60
42683;DHT22;28293;50.930;3.464;2022-12-18T05:54:17;-3270.60;89.50
42683;DHT22;28293;50.930;3.464;2022-12-18T05:56:43;-3270.60;89.50
42683;DHT22;28293;50.930;3.464;2022-12-18T05:59:09;-3270.60;89.40
42683;DHT22;28293;50.930;3.464;2022-12-18T06:01:35;-3270.60;89.30
42683;DHT22;28293;50.930;3.464;2022-12-18T06:04:00;-3270.60;89.30
42683;DHT22;28293;50.930;3.464;2022-12-18T06:06:27;-3270.60;89.30
42683;DHT22;28293;50.930;3.464;2022-12-18T06:08:54;-3270.50;89.20
42683;DHT22;28293;50.930;3.464;2022-12-18T06:11:25;-3270.50;89.10
42683;DHT22;28293;50.930;3.464;2022-12-18T06:13:55;-3270.60;89.10
42683;DHT22;28293;50.930;3.464;2022-12-18T06:16:21;-3270.60;89.00
42683;DHT22;28293;50.930;3.464;2022-12-18T06:18:47;-3270.60;89.00
42683;DHT22;28293;50.930;3.464;2022-12-18T06:21:12;-3270.60;88.80
42683;DHT22;28293;50.930;3.464;2022-12-18T06:23:38;-3270.60;88.80
42683;DHT22;28293;50.930;3.464;2022-12-18T06:26:09;-3270.60;88.80
42683;DHT22;28293;50.930;3.464;2022-12-18T06:28:35;-3270.60;88.80
42683;DHT22;28293;50.930;3.464;2022-12-18T06:31:02;-3270.60;88.80
42683;DHT22;28293;50.930;3.464;2022-12-18T06:33:28;-3270.60;88.80
42683;DHT22;28293;50.930;3.464;2022-12-18T06:35:59;-3270.60;88.80
42683;DHT22;28293;50.930;3.464;2022-12-18T06:38:25;-3270.60;88.90
42683;DHT22;28293;50.930;3.464;2022-12-18T06:40:51;-3270.60;88.80
42683;DHT22;28293;50.930;3.464;2022-12-18T06:43:16;-3270.50;88.70
42683;DHT22;28293;50.930;3.464;2022-12-18T06:45:42;-3270.50;88.80
42683;DHT22;28293;50.930;3.464;2022-12-18T06:48:07;-3270.50;88.80
42683;DHT22;28293;50.930;3.464;2022-12-18T06:50:33;-3270.50;88.80
42683;DHT22;28293;50.930;3.464;2022-12-18T06:52:59;-3270.50;88.90
42683;DHT22;28293;50.930;3.464;2022-12-18T06:55:25;-3270.50;88.80
42683;DHT22;28293;50.930;3.464;2022-12-18T06:57:51;-3270.50;88.70
42683;DHT22;28293;50.930;3.464;2022-12-18T07:00:17;-3270.50;88.60
42683;DHT22;28293;50.930;3.464;2022-12-18T07:02:43;-3270.50;88.60
42683;DHT22;28293;50.930;3.464;2022-12-18T07:05:08;-3270.50;88.50
42683;DHT22;28293;50.930;3.464;2022-12-18T07:07:35;-3270.40;88.60
42683;DHT22;28293;50.930;3.464;2022-12-18T07:10:00;-3270.40;88.70
42683;DHT22;28293;50.930;3.464;2022-12-18T07:12:29;-3270.40;88.60
42683;DHT22;28293;50.930;3.464;2022-12-18T07:14:55;-3270.40;88.50
42683;DHT22;28293;50.930;3.464;2022-12-18T07:17:20;-3270.30;88.50
42683;DHT22;28293;50.930;3.464;2022-12-18T07:19:46;-3270.40;88.50
42683;DHT22;28293;50.930;3.464;2022-12-18T07:22:12;-3270.30;88.50
42683;DHT22;28293;50.930;3.464;2022-12-18T07:24:37;-3270.30;88.50
42683;DHT22;28293;50.930;3.464;2022-12-18T07:27:03;-3270.30;88.60
42683;DHT22;28293;50.930;3.464;2022-12-18T07:29:29;-3270.30;88.50
42683;DHT22;28293;50.930;3.464;2022-12-18T07:31:54;-3270.30;88.50
42683;DHT22;28293;50.930;3.464;2022-12-18T07:34:20;-3270.40;88.50
42683;DHT22;28293;50.930;3.464;2022-12-18T07:36:46;-3270.40;88.60
42683;DHT22;28293;50.930;3.464;2022-12-18T07:39:11;-3270.40;88.50
42683;DHT22;28293;50.930;3.464;2022-12-18T07:41:37;-3270.40;88.50
42683;DHT22;28293;50.930;3.464;2022-12-18T07:44:03;-3270.50;88.50
42683;DHT22;28293;50.930;3.464;2022-12-18T07:46:29;-3270.50;88.50
42683;DHT22;28293;50.930;3.464;2022-12-18T07:48:54;-3270.50;88.50
42683;DHT22;28293;50.930;3.464;2022-12-18T07:51:20;-3270.60;88.50
42683;DHT22;28293;50.930;3.464;2022-12-18T07:53:46;-3270.50;88.30
42683;DHT22;28293;50.930;3.464;2022-12-18T07:56:12;-3270.50;88.30
42683;DHT22;28293;50.930;3.464;2022-12-18T07:58:38;-3270.50;88.30
42683;DHT22;28293;50.930;3.464;2022-12-18T08:01:05;-3270.60;88.30
42683;DHT22;28293;50.930;3.464;2022-12-18T08:03:31;-3270.60;88.30
42683;DHT22;28293;50.930;3.464;2022-12-18T08:06:05;-3270.60;88.20
42683;DHT22;28293;50.930;3.464;2022-12-18T08:08:32;-3270.60;88.20
42683;DHT22;28293;50.930;3.464;2022-12-18T08:10:58;-3270.70;88.30
42683;DHT22;28293;50.930;3.464;2022-12-18T08:13:24;-3270.80;88.20
42683;DHT22;28293;50.930;3.464;2022-12-18T08:16:02;-3270.90;88.20
42683;DHT22;28293;50.930;3.464;2022-12-18T08:18:28;-3271.00;88.00
42683;DHT22;28293;50.930;3.464;2022-12-18T08:20:55;-3271.00;87.90
42683;DHT22;28293;50.930;3.464;2022-12-18T08:23:21;-3271.10;87.80
42683;DHT22;28293;50.930;3.464;2022-12-18T08:25:47;-3271.20;87.70
42683;DHT22;28293;50.930;3.464;2022-12-18T08:28:13;-3271.30;87.60
42683;DHT22;28293;50.930;3.464;2022-12-18T08:30:39;-3271.30;87.70
42683;DHT22;28293;50.930;3.464;2022-12-18T08:33:04;-3271.40;87.70
42683;DHT22;28293;50.930;3.464;2022-12-18T08:35:30;-3271.60;87.70
42683;DHT22;28293;50.930;3.464;2022-12-18T08:37:59;-3271.70;87.70
42683;DHT22;28293;50.930;3.464;2022-12-18T08:40:25;-3271.80;87.80
42683;DHT22;28293;50.930;3.464;2022-12-18T08:42:51;-3272.00;87.90
42683;DHT22;28293;50.930;3.464;2022-12-18T08:45:35;-3272.10;87.80
42683;DHT22;28293;50.930;3.464;2022-12-18T08:48:01;-3272.20;87.70
42683;DHT22;28293;50.930;3.464;2022-12-18T08:50:26;-3272.30;87.80
42683;DHT22;28293;50.930;3.464;2022-12-18T08:52:52;-3272.40;87.80
42683;DHT22;28293;50.930;3.464;2022-12-18T08:55:18;-3272.60;87.90
42683;DHT22;28293;50.930;3.464;2022-12-18T08:57:43;-3272.70;87.90
42683;DHT22;28293;50.930;3.464;2022-12-18T09:00:13;-3272.80;88.00
42683;DHT22;28293;50.930;3.464;2022-12-18T09:02:39;-3273.00;88.00
42683;DHT22;28293;50.930;3.464;2022-12-18T09:05:05;-3273.10;88.00
42683;DHT22;28293;50.930;3.464;2022-12-18T09:07:30;-3273.30;87.70
42683;DHT22;28293;50.930;3.464;2022-12-18T09:09:56;-3273.40;87.40
42683;DHT22;28293;50.930;3.464;2022-12-18T09:12:22;-3273.50;87.20
42683;DHT22;28293;50.930;3.464;2022-12-18T09:14:47;-3273.50;86.90
42683;DHT22;28293;50.930;3.464;2022-12-18T09:17:13;-3273.60;86.60
42683;DHT22;28293;50.930;3.464;2022-12-18T09:19:38;-3273.70;86.20
42683;DHT22;28293;50.930;3.464;2022-12-18T09:22:05;-3273.80;85.90
42683;DHT22;28293;50.930;3.464;2022-12-18T09:24:30;-3273.90;85.70
42683;DHT22;28293;50.930;3.464;2022-12-18T09:26:56;-3274.00;85.50
42683;DHT22;28293;50.930;3.464;2022-12-18T09:29:21;-3274.00;85.40
42683;DHT22;28293;50.930;3.464;2022-12-18T09:31:47;-3274.10;85.20
42683;DHT22;28293;50.930;3.464;2022-12-18T09:34:14;-3274.10;85.10
42683;DHT22;28293;50.930;3.464;2022-12-18T09:36:40;-3274.20;85.00
42683;DHT22;28293;50.930;3.464;2022-12-18T09:39:06;-3274.20;84.90
42683;DHT22;28293;50.930;3.464;2022-12-18T09:41:42;-3274.30;84.80
42683;DHT22;28293;50.930;3.464;2022-12-18T09:49:31;-3274.50;84.40
42683;DHT22;28293;50.930;3.464;2022-12-18T09:52:08;-3274.40;84.50
42683;DHT22;28293;50.930;3.464;2022-12-18T09:55:05;-3274.50;84.50
42683;DHT22;28293;50.930;3.464;2022-12-18T09:57:39;-3274.50;84.50
42683;DHT22;28293;50.930;3.464;2022-12-18T10:00:15;-3274.60;84.40
42683;DHT22;28293;50.930;3.464;2022-12-18T10:02:43;-3274.60;84.30
42683;DHT22;28293;50.930;3.464;2022-12-18T10:05:14;-3274.70;84.40
42683;DHT22;28293;50.930;3.464;2022-12-18T10:13:31;-3274.80;84.00
42683;DHT22;28293;50.930;3.464;2022-12-18T10:18:39;-3274.90;83.50
42683;DHT22;28293;50.930;3.464;2022-12-18T10:21:30;-3275.00;83.50
42683;DHT22;28293;50.930;3.464;2022-12-18T10:26:26;-3275.00;83.40
42683;DHT22;28293;50.930;3.464;2022-12-18T10:28:53;-3275.00;83.30
42683;DHT22;28293;50.930;3.464;2022-12-18T10:31:22;-3275.10;83.10
42683;DHT22;28293;50.930;3.464;2022-12-18T10:33:47;-3275.10;82.90
42683;DHT22;28293;50.930;3.464;2022-12-18T10:36:15;-3275.10;83.00
42683;DHT22;28293;50.930;3.464;2022-12-18T10:38:43;-3275.20;83.10
42683;DHT22;28293;50.930;3.464;2022-12-18T10:43:51;-3275.30;82.80
42683;DHT22;28293;50.930;3.464;2022-12-18T10:46:34;-3275.40;82.40
42683;DHT22;28293;50.930;3.464;2022-12-18T10:49:00;-3275.40;82.20
42683;DHT22;28293;50.930;3.464;2022-12-18T10:51:36;-3275.40;82.10
42683;DHT22;28293;50.930;3.464;2022-12-18T10:54:22;-3275.40;81.80
42683;DHT22;28293;50.930;3.464;2022-12-18T10:56:49;-3275.50;81.40
42683;DHT22;28293;50.930;3.464;2022-12-18T10:59:16;-3275.50;81.10
42683;DHT22;28293;50.930;3.464;2022-12-18T11:01:53;-3275.50;81.10
42683;DHT22;28293;50.930;3.464;2022-12-18T11:04:30;-3275.50;80.50
42683;DHT22;28293;50.930;3.464;2022-12-18T11:07:04;-3275.50;80.20
42683;DHT22;28293;50.930;3.464;2022-12-18T11:09:38;-3275.50;80.40
42683;DHT22;28293;50.930;3.464;2022-12-18T11:12:15;-3275.50;80.20
42683;DHT22;28293;50.930;3.464;2022-12-18T11:17:25;-3275.50;80.20
42683;DHT22;28293;50.930;3.464;2022-12-18T11:19:57;-3275.50;79.80
42683;DHT22;28293;50.930;3.464;2022-12-18T11:25:12;-3275.60;79.80
42683;DHT22;28293;50.930;3.464;2022-12-18T11:27:51;-3275.60;80.10
42683;DHT22;28293;50.930;3.464;2022-12-18T11:35:52;-3275.70;80.30
42683;DHT22;28293;50.930;3.464;2022-12-18T11:41:02;-3275.80;80.10
42683;DHT22;28293;50.930;3.464;2022-12-18T11:43:43;-3275.90;80.20
42683;DHT22;28293;50.930;3.464;2022-12-18T11:46:32;-3275.90;80.00
42683;DHT22;28293;50.930;3.464;2022-12-18T11:49:06;-3275.80;80.00
42683;DHT22;28293;50.930;3.464;2022-12-18T11:51:42;-3276.00;80.10
42683;DHT22;28293;50.930;3.464;2022-12-18T11:54:13;-3276.00;79.60
42683;DHT22;28293;50.930;3.464;2022-12-18T11:56:55;-3276.00;79.80
42683;DHT22;28293;50.930;3.464;2022-12-18T12:15:47;-3276.20;79.30
42683;DHT22;28293;50.930;3.464;2022-12-18T12:24:05;-3276.40;78.90
42683;DHT22;28293;50.930;3.464;2022-12-18T12:41:01;-3276.60;78.00
42683;DHT22;28293;50.930;3.464;2022-12-18T12:43:41;-3276.60;78.10
42683;DHT22;28293;50.930;3.464;2022-12-18T12:46:12;-3276.60;78.20
42683;DHT22;28293;50.930;3.464;2022-12-18T12:48:52;-3276.60;78.40
42683;DHT22;28293;50.930;3.464;2022-12-18T12:51:22;-3276.60;78.60
42683;DHT22;28293;50.930;3.464;2022-12-18T12:53:49;-3276.60;78.90
42683;DHT22;28293;50.930;3.464;2022-12-18T12:56:20;-3276.50;79.00
42683;DHT22;28293;50.930;3.464;2022-12-18T12:58:55;-3276.50;79.40
42683;DHT22;28293;50.930;3.464;2022-12-18T13:01:40;-3276.50;79.40
42683;DHT22;28293;50.930;3.464;2022-12-18T13:04:27;-3276.50;79.80
42683;DHT22;28293;50.930;3.464;2022-12-18T13:07:06;-3276.50;80.30
42683;DHT22;28293;50.930;3.464;2022-12-18T13:12:58;-3276.50;80.60
42683;DHT22;28293;50.930;3.464;2022-12-18T13:15:34;-3276.50;80.20
42683;DHT22;28293;50.930;3.464;2022-12-18T13:20:47;-3276.50;80.20
42683;DHT22;28293;50.930;3.464;2022-12-18T13:25:58;-3276.50;80.10
42683;DHT22;28293;50.930;3.464;2022-12-18T13:31:00;-3276.40;80.00
42683;DHT22;28293;50.930;3.464;2022-12-18T13:33:35;-3276.40;80.00
42683;DHT22;28293;50.930;3.464;2022-12-18T13:36:08;-3276.40;79.90
42683;DHT22;28293;50.930;3.464;2022-12-18T13:38:36;-3276.40;79.70
42683;DHT22;28293;50.930;3.464;2022-12-18T13:43:54;-3276.50;80.00
42683;DHT22;28293;50.930;3.464;2022-12-18T13:46:29;-3276.50;79.60
42683;DHT22;28293;50.930;3.464;2022-12-18T13:49:05;-3276.50;79.80
42683;DHT22;28293;50.930;3.464;2022-12-18T13:51:48;-3276.50;79.90
42683;DHT22;28293;50.930;3.464;2022-12-18T13:57:12;-3276.50;79.70
42683;DHT22;28293;50.930;3.464;2022-12-18T13:59:50;-3276.50;79.70
42683;DHT22;28293;50.930;3.464;2022-12-18T14:02:24;-3276.60;79.50
42683;DHT22;28293;50.930;3.464;2022-12-18T14:04:51;-3276.60;79.60
42683;DHT22;28293;50.930;3.464;2022-12-18T14:07:22;-3276.50;79.70
42683;DHT22;28293;50.930;3.464;2022-12-18T14:09:53;-3276.50;79.70
42683;DHT22;28293;50.930;3.464;2022-12-18T14:15:31;-3276.60;79.90
42683;DHT22;28293;50.930;3.464;2022-12-18T14:20:44;-3276.60;79.90
42683;DHT22;28293;50.930;3.464;2022-12-18T14:23:37;-3276.70;79.50
42683;DHT22;28293;50.930;3.464;2022-12-18T14:26:25;-3276.60;79.30
42683;DHT22;28293;50.930;3.464;2022-12-18T14:28:52;-3276.70;79.20
42683;DHT22;28293;50.930;3.464;2022-12-18T14:31:21;-3276.70;79.20
42683;DHT22;28293;50.930;3.464;2022-12-18T14:33:47;-3276.70;79.40
42683;DHT22;28293;50.930;3.464;2022-12-18T14:36:18;-3276.70;79.40
42683;DHT22;28293;50.930;3.464;2022-12-18T14:38:49;-3276.70;79.50
42683;DHT22;28293;50.930;3.464;2022-12-18T14:41:16;-3276.70;79.40
42683;DHT22;28293;50.930;3.464;2022-12-18T14:43:45;0.00;79.50
42683;DHT22;28293;50.930;3.464;2022-12-18T14:49:01;0.00;79.50
42683;DHT22;28293;50.930;3.464;2022-12-18T14:51:29;0.00;79.60
42683;DHT22;28293;50.930;3.464;2022-12-18T14:53:57;0.00;79.70
42683;DHT22;28293;50.930;3.464;2022-12-18T14:56:37;0.00;79.70
42683;DHT22;28293;50.930;3.464;2022-12-18T14:59:14;0.00;79.60
42683;DHT22;28293;50.930;3.464;2022-12-18T15:04:37;0.00;79.20
42683;DHT22;28293;50.930;3.464;2022-12-18T15:07:15;0.00;79.20
42683;DHT22;28293;50.930;3.464;2022-12-18T15:09:43;0.00;79.40
42683;DHT22;28293;50.930;3.464;2022-12-18T15:12:48;0.00;79.40
42683;DHT22;28293;50.930;3.464;2022-12-18T15:18:04;0.00;79.50
42683;DHT22;28293;50.930;3.464;2022-12-18T15:20:33;0.00;79.60
42683;DHT22;28293;50.930;3.464;2022-12-18T15:23:04;0.10;79.40
42683;DHT22;28293;50.930;3.464;2022-12-18T15:25:39;0.10;79.50
42683;DHT22;28293;50.930;3.464;2022-12-18T15:28:15;0.10;79.50
42683;DHT22;28293;50.930;3.464;2022-12-18T15:31:02;0.10;79.50
42683;DHT22;28293;50.930;3.464;2022-12-18T15:33:34;0.10;79.60
42683;DHT22;28293;50.930;3.464;2022-12-18T15:36:03;0.00;79.60
42683;DHT22;28293;50.930;3.464;2022-12-18T15:38:30;0.10;79.60
42683;DHT22;28293;50.930;3.464;2022-12-18T15:40:56;0.10;79.50
42683;DHT22;28293;50.930;3.464;2022-12-18T15:43:23;0.10;79.40
42683;DHT22;28293;50.930;3.464;2022-12-18T15:46:03;0.10;79.40
42683;DHT22;28293;50.930;3.464;2022-12-18T15:48:29;0.20;79.40
42683;DHT22;28293;50.930;3.464;2022-12-18T15:50:56;0.10;79.50
42683;DHT22;28293;50.930;3.464;2022-12-18T15:53:25;0.10;79.50
42683;DHT22;28293;50.930;3.464;2022-12-18T15:55:53;0.10;79.60
42683;DHT22;28293;50.930;3.464;2022-12-18T15:58:37;0.10;79.50
42683;DHT22;28293;50.930;3.464;2022-12-18T16:01:03;0.10;79.70
42683;DHT22;28293;50.930;3.464;2022-12-18T16:03:28;0.10;79.80
42683;DHT22;28293;50.930;3.464;2022-12-18T16:05:54;0.20;79.80
42683;DHT22;28293;50.930;3.464;2022-12-18T16:08:19;0.20;80.00
42683;DHT22;28293;50.930;3.464;2022-12-18T16:10:45;0.20;80.10
42683;DHT22;28293;50.930;3.464;2022-12-18T16:13:12;0.30;80.30
42683;DHT22;28293;50.930;3.464;2022-12-18T16:15:41;0.20;80.60
42683;DHT22;28293;50.930;3.464;2022-12-18T16:18:07;0.20;80.90
42683;DHT22;28293;50.930;3.464;2022-12-18T16:20:33;0.20;81.00
42683;DHT22;28293;50.930;3.464;2022-12-18T16:22:58;0.20;81.40
42683;DHT22;28293;50.930;3.464;2022-12-18T16:25:26;0.20;81.50
42683;DHT22;28293;50.930;3.464;2022-12-18T16:27:54;0.20;81.80
42683;DHT22;28293;50.930;3.464;2022-12-18T16:30:26;0.20;82.20
42683;DHT22;28293;50.930;3.464;2022-12-18T16:32:53;0.30;82.30
42683;DHT22;28293;50.930;3.464;2022-12-18T16:35:19;0.20;82.20
42683;DHT22;28293;50.930;3.464;2022-12-18T16:37:45;0.20;82.20
42683;DHT22;28293;50.930;3.464;2022-12-18T16:40:14;0.30;82.30
42683;DHT22;28293;50.930;3.464;2022-12-18T16:42:41;0.30;82.70
42683;DHT22;28293;50.930;3.464;2022-12-18T16:45:09;0.40;83.00
42683;DHT22;28293;50.930;3.464;2022-12-18T16:47:36;0.30;83.20
42683;DHT22;28293;50.930;3.464;2022-12-18T16:50:02;0.30;83.50
42683;DHT22;28293;50.930;3.464;2022-12-18T16:52:28;0.30;83.80
42683;DHT22;28293;50.930;3.464;2022-12-18T16:54:54;0.40;84.00
42683;DHT22;28293;50.930;3.464;2022-12-18T16:57:20;0.40;84.00
42683;DHT22;28293;50.930;3.464;2022-12-18T16:59:46;0.40;84.50
42683;DHT22;28293;50.930;3.464;2022-12-18T17:02:18;0.40;84.50
42683;DHT22;28293;50.930;3.464;2022-12-18T17:04:44;0.40;84.70
42683;DHT22;28293;50.930;3.464;2022-12-18T17:07:10;0.40;85.00